createdAt,value
2019-01-12T00:01:44.292Z,5.10
2019-01-12T00:04:14.607Z,5.40
2019-01-12T00:06:45.371Z,5.77
2019-01-12T00:09:14.643Z,6.00
2019-01-12T00:11:44.584Z,5.67
2019-01-12T00:14:14.409Z,5.50
2019-01-12T00:16:45.533Z,5.73
2019-01-12T00:19:15.292Z,5.67
2019-01-12T00:21:47.081Z,6.30
2019-01-12T00:24:17.519Z,5.27
2019-01-12T00:26:48.162Z,5.90
2019-01-12T00:29:18.701Z,6.20
2019-01-12T00:31:50.477Z,5.90
2019-01-12T00:34:21.634Z,6.43
2019-01-12T00:36:52.919Z,6.20
2019-01-12T00:39:24.574Z,6.50
2019-01-12T00:41:55.539Z,6.10
2019-01-12T00:44:25.892Z,6.97
2019-01-12T00:46:55.807Z,7.03
2019-01-12T00:49:26.889Z,6.60
2019-01-12T00:51:56.770Z,7.47
2019-01-12T00:54:27.181Z,6.73
2019-01-12T00:56:57.468Z,6.23
2019-01-12T00:59:29.614Z,6.20
2019-01-12T01:02:00.356Z,6.53
2019-01-12T01:04:30.565Z,6.63
2019-01-12T01:07:00.764Z,6.90
2019-01-12T01:09:30.276Z,6.77
2019-01-12T01:12:00.541Z,6.10
2019-01-12T01:14:30.135Z,7.03
2019-01-12T01:17:00.643Z,7.17
2019-01-12T01:19:31.604Z,6.73
2019-01-12T01:22:02.641Z,6.80
2019-01-12T01:24:33.016Z,6.37
2019-01-12T01:27:03.609Z,6.73
2019-01-12T01:29:33.662Z,6.77
2019-01-12T01:32:03.424Z,6.47
2019-01-12T01:34:33.157Z,6.27
2019-01-12T01:37:03.024Z,6.53
2019-01-12T01:39:33.335Z,5.77
2019-01-12T01:42:03.706Z,5.90
2019-01-12T01:44:33.246Z,5.57
2019-01-12T01:47:03.730Z,6.33
2019-01-12T01:49:32.886Z,6.67
2019-01-12T01:52:02.354Z,6.33
2019-01-12T01:54:32.979Z,6.90
2019-01-12T01:57:08.004Z,6.37
2019-01-12T01:59:43.112Z,6.33
2019-01-12T02:02:13.899Z,6.60
2019-01-12T02:04:44.102Z,6.67
2019-01-12T02:07:15.055Z,5.87
2019-01-12T02:09:44.895Z,5.50
2019-01-12T02:12:16.539Z,5.00
2019-01-12T02:14:46.561Z,5.60
2019-01-12T02:17:15.864Z,6.20
2019-01-12T02:19:45.419Z,6.77
2019-01-12T02:22:16.886Z,7.17
2019-01-12T02:24:47.438Z,7.33
2019-01-12T02:27:17.005Z,6.97
2019-01-12T02:29:48.044Z,5.67
2019-01-12T02:32:17.177Z,6.90
2019-01-12T02:34:47.003Z,5.73
2019-01-12T02:37:17.369Z,6.40
2019-01-12T02:39:47.146Z,6.53
2019-01-12T02:42:20.850Z,6.63
2019-01-12T02:44:50.709Z,7.20
2019-01-12T02:47:22.129Z,6.60
2019-01-12T02:49:52.241Z,6.83
2019-01-12T02:52:22.345Z,6.53
2019-01-12T02:54:51.894Z,6.60
2019-01-12T02:57:22.611Z,6.83
2019-01-12T02:59:53.189Z,6.70
2019-01-12T03:02:22.600Z,6.70
2019-01-12T03:04:53.489Z,6.40
2019-01-12T03:07:23.263Z,7.00
2019-01-12T03:09:56.962Z,6.77
2019-01-12T03:12:28.090Z,7.00
2019-01-12T03:14:58.497Z,6.90
2019-01-12T03:17:27.898Z,6.73
2019-01-12T03:19:59.301Z,6.47
2019-01-12T03:22:29.227Z,7.10
2019-01-12T03:24:58.821Z,6.40
2019-01-12T03:27:28.479Z,6.47
2019-01-12T03:29:59.639Z,6.20
2019-01-12T03:32:28.958Z,5.70
2019-01-12T03:34:59.069Z,5.83
2019-01-12T03:37:29.145Z,5.83
2019-01-12T03:40:00.105Z,6.10
2019-01-12T03:42:29.534Z,5.83
2019-01-12T03:44:59.971Z,5.63
2019-01-12T03:47:30.126Z,5.70
2019-01-12T03:50:00.427Z,5.60
2019-01-12T03:52:31.679Z,5.67
2019-01-12T03:55:01.959Z,5.77
2019-01-12T03:57:32.589Z,6.17
2019-01-12T04:00:03.033Z,5.70
2019-01-12T04:02:33.718Z,6.17
2019-01-12T04:05:05.243Z,5.90
2019-01-12T04:07:36.549Z,6.20
2019-01-12T04:10:08.334Z,6.33
2019-01-12T04:12:37.837Z,6.17
2019-01-12T04:15:10.057Z,6.50
2019-01-12T04:17:39.955Z,7.17
2019-01-12T04:20:13.265Z,6.57
2019-01-12T04:22:44.265Z,6.47
2019-01-12T04:25:15.103Z,6.73
2019-01-12T04:27:45.330Z,6.97
2019-01-12T04:30:18.685Z,6.37
2019-01-12T04:32:48.148Z,6.13
2019-01-12T04:35:19.884Z,6.43
2019-01-12T04:37:50.025Z,6.97
2019-01-12T04:40:21.523Z,6.03
2019-01-12T04:42:51.611Z,6.60
2019-01-12T04:45:21.936Z,6.50
2019-01-12T04:47:51.513Z,6.77
2019-01-12T04:50:21.059Z,7.00
2019-01-12T04:52:51.971Z,6.83
2019-01-12T04:55:22.256Z,7.10
2019-01-12T04:57:51.577Z,7.00
2019-01-12T05:00:22.215Z,6.40
2019-01-12T05:02:51.892Z,8.00
2019-01-12T05:05:21.798Z,7.13
2019-01-12T05:07:52.289Z,6.80
2019-01-12T05:10:23.075Z,7.37
2019-01-12T05:12:53.226Z,7.03
2019-01-12T05:15:24.576Z,7.07
2019-01-12T05:17:54.064Z,7.20
2019-01-12T05:20:24.069Z,7.43
2019-01-12T05:22:53.579Z,7.50
2019-01-12T05:25:23.936Z,7.67
2019-01-12T05:27:54.116Z,7.53
2019-01-12T05:30:23.715Z,8.20
2019-01-12T05:32:53.831Z,7.63
2019-01-12T05:35:24.053Z,7.33
2019-01-12T05:37:54.374Z,7.53
2019-01-12T05:40:23.854Z,6.97
2019-01-12T05:42:53.876Z,7.27
2019-01-12T05:45:24.336Z,7.30
2019-01-12T05:47:53.542Z,7.07
2019-01-12T05:50:24.380Z,7.50
2019-01-12T05:52:54.443Z,7.03
2019-01-12T05:55:24.761Z,7.43
2019-01-12T05:57:56.151Z,7.70
2019-01-12T06:00:26.963Z,7.47
2019-01-12T06:02:58.081Z,6.77
2019-01-12T06:05:30.894Z,7.33
2019-01-12T06:08:00.723Z,7.40
2019-01-12T06:10:30.476Z,6.90
2019-01-12T06:12:59.801Z,8.07
2019-01-12T06:15:29.665Z,7.43
2019-01-12T06:17:59.800Z,6.97
2019-01-12T06:20:30.191Z,7.77
2019-01-12T06:23:01.686Z,7.50
2019-01-12T06:25:31.462Z,7.07
2019-01-12T06:28:01.060Z,6.53
2019-01-12T06:30:31.221Z,6.67
2019-01-12T06:33:01.826Z,6.80
2019-01-12T06:35:31.447Z,7.07
2019-01-12T06:38:01.721Z,6.73
2019-01-12T06:40:32.828Z,7.13
2019-01-12T06:43:03.538Z,6.53
2019-01-12T06:45:35.095Z,6.97
2019-01-12T06:48:05.789Z,6.97
2019-01-12T06:50:35.327Z,7.17
2019-01-12T06:53:04.814Z,6.67
2019-01-12T06:55:34.598Z,6.90
2019-01-12T06:58:04.474Z,9.57
2019-01-12T07:00:33.878Z,8.50
2019-01-12T07:03:04.986Z,7.80
2019-01-12T07:05:45.582Z,8.60
2019-01-12T07:08:15.591Z,7.23
2019-01-12T07:10:45.350Z,8.30
2019-01-12T07:13:15.283Z,7.90
2019-01-12T07:15:46.598Z,8.30
2019-01-12T07:18:15.888Z,8.57
2019-01-12T07:20:47.324Z,13.50
2019-01-12T07:23:16.246Z,35.60
2019-01-12T07:25:47.425Z,6.90
2019-01-12T07:28:17.758Z,7.20
2019-01-12T07:30:47.636Z,6.37
2019-01-12T07:33:18.087Z,7.20
2019-01-12T07:35:48.572Z,7.73
2019-01-12T07:38:20.764Z,7.53
2019-01-12T07:40:50.266Z,7.33
2019-01-12T07:43:20.364Z,8.57
2019-01-12T07:45:49.699Z,8.33
2019-01-12T07:48:19.474Z,8.53
2019-01-12T07:50:49.561Z,7.70
2019-01-12T07:53:20.369Z,8.03
2019-01-12T07:55:49.835Z,13.93
2019-01-12T07:58:20.098Z,10.60
2019-01-12T08:00:50.122Z,10.60
2019-01-12T08:03:19.475Z,9.67
2019-01-12T08:05:49.773Z,10.47
2019-01-12T08:08:19.853Z,10.37
2019-01-12T08:10:49.524Z,10.37
2019-01-12T08:13:19.518Z,9.10
2019-01-12T08:15:48.373Z,9.20
2019-01-12T08:18:22.807Z,8.47
2019-01-12T08:20:52.891Z,8.50
2019-01-12T08:23:23.309Z,8.77
2019-01-12T08:25:52.740Z,8.80
2019-01-12T08:28:22.558Z,9.23
2019-01-12T08:30:54.586Z,12.57
2019-01-12T08:33:24.133Z,7.63
2019-01-12T08:35:54.853Z,7.97
2019-01-12T08:38:25.948Z,7.43
2019-01-12T08:40:55.785Z,7.23
2019-01-12T08:43:26.883Z,8.00
2019-01-12T08:45:56.990Z,9.00
2019-01-12T08:48:27.648Z,7.83
2019-01-12T08:50:59.719Z,10.87
2019-01-12T08:53:30.474Z,22.70
2019-01-12T08:56:00.389Z,14.47
2019-01-12T08:58:30.469Z,16.30
2019-01-12T09:01:01.946Z,12.87
2019-01-12T09:03:33.823Z,11.63
2019-01-12T09:06:03.631Z,10.50
2019-01-12T09:08:33.463Z,9.77
2019-01-12T09:11:03.718Z,8.47
2019-01-12T09:13:32.643Z,7.03
2019-01-12T09:16:03.592Z,7.47
2019-01-12T09:18:34.017Z,7.60
2019-01-12T09:21:03.247Z,7.50
2019-01-12T09:23:33.203Z,7.87
2019-01-12T09:26:02.677Z,7.83
2019-01-12T09:28:32.636Z,7.60
2019-01-12T09:31:02.594Z,8.80
2019-01-12T09:33:33.115Z,8.83
2019-01-12T09:36:03.327Z,9.70
2019-01-12T09:38:33.303Z,10.63
2019-01-12T09:41:02.523Z,9.00
2019-01-12T09:43:32.705Z,9.30
2019-01-12T09:46:01.935Z,9.70
2019-01-12T09:48:30.738Z,8.80
2019-01-12T09:51:02.163Z,7.70
2019-01-12T09:53:32.009Z,7.60
2019-01-12T09:56:01.671Z,8.23
2019-01-12T09:58:31.001Z,8.37
2019-01-12T10:01:01.269Z,19.50
2019-01-12T10:03:31.004Z,19.33
2019-01-12T10:06:00.786Z,11.27
2019-01-12T10:08:30.237Z,16.20
2019-01-12T10:11:00.895Z,5.57
2019-01-12T10:13:30.859Z,5.20
2019-01-12T10:16:00.688Z,5.27
2019-01-12T10:18:30.596Z,6.40
2019-01-12T10:21:01.109Z,7.20
2019-01-12T10:23:30.640Z,8.37
2019-01-12T10:26:00.311Z,6.43
2019-01-12T10:28:30.156Z,8.60
2019-01-12T10:31:00.246Z,8.30
2019-01-12T10:33:29.271Z,6.30
2019-01-12T10:35:58.666Z,7.53
2019-01-12T10:38:28.991Z,6.23
2019-01-12T10:40:59.281Z,4.70
2019-01-12T10:43:29.947Z,5.00
2019-01-12T10:46:00.214Z,5.70
2019-01-12T10:48:31.296Z,5.87
2019-01-12T10:51:00.716Z,5.50
2019-01-12T10:53:30.809Z,4.00
2019-01-12T10:56:00.676Z,5.20
2019-01-12T10:58:33.836Z,4.20
2019-01-12T11:01:03.925Z,4.77
2019-01-12T11:03:34.312Z,4.30
2019-01-12T11:06:06.657Z,4.70
2019-01-12T11:08:36.449Z,4.27
2019-01-12T11:11:06.675Z,3.70
2019-01-12T11:13:37.651Z,4.03
2019-01-12T11:16:07.900Z,3.60
2019-01-12T11:18:38.076Z,4.83
2019-01-12T11:21:09.734Z,5.07
2019-01-12T11:23:39.210Z,5.73
2019-01-12T11:26:08.494Z,5.00
2019-01-12T11:28:37.460Z,3.37
2019-01-12T11:31:07.499Z,3.70
2019-01-12T11:33:37.306Z,4.70
2019-01-12T11:36:06.769Z,3.20
2019-01-12T11:38:36.963Z,2.47
2019-01-12T11:41:07.236Z,2.70
2019-01-12T11:43:37.249Z,2.40
2019-01-12T11:46:06.586Z,2.60
2019-01-12T11:48:36.168Z,2.50
2019-01-12T11:51:13.708Z,3.53
2019-01-12T11:53:43.556Z,4.80
2019-01-12T11:56:13.374Z,4.27
2019-01-12T11:58:44.190Z,3.47
2019-01-12T12:01:14.181Z,3.50
2019-01-12T12:03:44.243Z,3.47
2019-01-12T12:06:13.607Z,5.17
2019-01-12T12:08:45.526Z,3.80
2019-01-12T12:11:15.509Z,3.67
2019-01-12T12:13:46.776Z,4.13
2019-01-12T12:16:17.171Z,4.40
2019-01-12T12:18:48.501Z,4.33
2019-01-12T12:21:18.184Z,3.83
2019-01-12T12:23:47.601Z,3.27
2019-01-12T12:26:17.819Z,3.80
2019-01-12T12:28:47.061Z,3.23
2019-01-12T12:31:17.106Z,3.50
2019-01-12T12:33:47.199Z,5.13
2019-01-12T12:36:18.044Z,4.40
2019-01-12T12:38:48.268Z,4.70
2019-01-12T12:41:18.424Z,3.80
2019-01-12T12:43:49.497Z,5.60
2019-01-12T12:46:20.508Z,4.70
2019-01-12T12:48:50.851Z,6.13
2019-01-12T12:51:20.444Z,4.97
2019-01-12T12:53:49.447Z,4.10
2019-01-12T12:56:20.836Z,6.80
2019-01-12T12:58:51.791Z,11.80
2019-01-12T13:01:22.632Z,7.23
2019-01-12T13:03:53.548Z,7.07
2019-01-12T13:06:23.657Z,5.73
2019-01-12T13:08:53.064Z,4.63
2019-01-12T13:11:23.314Z,3.63
2019-01-12T13:13:53.873Z,4.07
2019-01-12T13:16:24.221Z,4.13
2019-01-12T13:18:55.699Z,3.73
2019-01-12T13:21:24.919Z,4.00
2019-01-12T13:23:55.098Z,3.80
2019-01-12T13:26:26.886Z,4.03
2019-01-12T13:28:58.070Z,5.00
2019-01-12T13:31:28.050Z,4.87
2019-01-12T13:33:58.108Z,6.73
2019-01-12T13:36:28.009Z,4.20
2019-01-12T13:38:57.601Z,4.20
2019-01-12T13:41:29.094Z,7.13
2019-01-12T13:43:59.632Z,3.77
2019-01-12T13:46:30.765Z,3.13
2019-01-12T13:49:00.047Z,3.70
2019-01-12T13:51:30.079Z,3.00
2019-01-12T13:54:05.906Z,3.60
2019-01-12T13:56:35.867Z,3.37
2019-01-12T13:59:08.351Z,3.00
2019-01-12T14:01:38.156Z,3.50
2019-01-12T14:04:09.278Z,3.10
2019-01-12T14:06:38.873Z,3.57
2019-01-12T14:09:11.127Z,3.53
2019-01-12T14:11:41.298Z,3.20
2019-01-12T14:14:12.290Z,3.77
2019-01-12T14:16:42.645Z,3.90
2019-01-12T14:19:11.596Z,4.30
2019-01-12T14:21:42.406Z,4.07
2019-01-12T14:24:15.542Z,3.93
2019-01-12T14:26:45.244Z,4.23
2019-01-12T14:29:15.249Z,4.60
2019-01-12T14:31:45.499Z,4.30
2019-01-12T14:34:15.867Z,4.00
2019-01-12T14:36:45.299Z,5.80
2019-01-12T14:39:14.391Z,4.47
2019-01-12T14:41:44.531Z,3.80
2019-01-12T14:44:14.262Z,3.90
2019-01-12T14:46:45.021Z,3.97
2019-01-12T14:49:17.141Z,4.33
2019-01-12T14:51:47.034Z,4.57
2019-01-12T14:54:17.276Z,3.50
2019-01-12T14:56:46.958Z,3.90
2019-01-12T14:59:16.901Z,3.50
2019-01-12T15:01:46.911Z,3.97
2019-01-12T15:04:16.995Z,4.47
2019-01-12T15:06:47.118Z,4.27
2019-01-12T15:09:16.569Z,4.00
2019-01-12T15:11:47.479Z,4.30
2019-01-12T15:14:17.674Z,4.07
2019-01-12T15:16:53.463Z,4.40
2019-01-12T15:19:23.016Z,4.10
2019-01-12T15:21:53.152Z,5.47
2019-01-12T15:24:22.736Z,6.40
2019-01-12T15:26:52.975Z,3.97
2019-01-12T15:29:23.536Z,4.13
2019-01-12T15:31:54.073Z,4.10
2019-01-12T15:34:24.782Z,4.10
2019-01-12T15:36:54.065Z,4.27
2019-01-12T15:39:23.444Z,4.47
2019-01-12T15:41:55.906Z,4.30
2019-01-12T15:44:26.090Z,4.07
2019-01-12T15:46:57.144Z,4.17
2019-01-12T15:49:28.416Z,3.97
2019-01-12T15:51:58.333Z,4.07
2019-01-12T15:54:28.422Z,4.27
2019-01-12T15:57:00.211Z,3.57
2019-01-12T15:59:30.406Z,3.73
2019-01-12T16:02:00.067Z,3.60
2019-01-12T16:04:35.287Z,3.70
2019-01-12T16:07:06.384Z,3.80
2019-01-12T16:09:36.596Z,3.80
2019-01-12T16:12:07.621Z,3.60
2019-01-12T16:14:37.027Z,3.80
2019-01-12T16:17:07.607Z,4.10
2019-01-12T16:19:38.350Z,4.20
2019-01-12T16:22:08.716Z,4.83
2019-01-12T16:24:37.775Z,4.20
2019-01-12T16:27:09.524Z,3.93
2019-01-12T16:29:39.847Z,4.17
2019-01-12T16:32:10.084Z,4.10
2019-01-12T16:34:40.304Z,5.03
2019-01-12T16:37:09.694Z,4.90
2019-01-12T16:39:41.635Z,5.93
2019-01-12T16:42:11.079Z,5.67
2019-01-12T16:44:43.780Z,5.17
2019-01-12T16:47:13.945Z,5.00
2019-01-12T16:49:46.151Z,5.83
2019-01-12T16:52:16.206Z,10.00
2019-01-12T16:54:46.378Z,7.40
2019-01-12T16:57:17.030Z,9.77
2019-01-12T16:59:48.057Z,14.10
2019-01-12T17:02:19.026Z,12.47
2019-01-12T17:04:49.726Z,12.37
2019-01-12T17:07:21.029Z,14.90
2019-01-12T17:09:52.686Z,11.77
2019-01-12T17:12:23.191Z,11.43
2019-01-12T17:14:53.515Z,8.80
2019-01-12T17:17:23.519Z,9.60
2019-01-12T17:19:52.818Z,10.53
2019-01-12T17:22:25.497Z,10.33
2019-01-12T17:24:54.984Z,10.87
2019-01-12T17:27:25.290Z,10.67
2019-01-12T17:29:54.531Z,13.63
2019-01-12T17:32:24.491Z,22.43
2019-01-12T17:34:54.868Z,16.10
2019-01-12T17:37:26.920Z,13.00
2019-01-12T17:39:58.428Z,15.23
2019-01-12T17:42:28.251Z,15.10
2019-01-12T17:44:57.534Z,12.63
2019-01-12T17:47:28.361Z,29.57
2019-01-12T17:49:58.554Z,13.50
2019-01-12T17:52:28.068Z,11.43
2019-01-12T17:54:57.696Z,11.67
2019-01-12T17:57:27.871Z,11.53
2019-01-12T17:59:58.680Z,14.33
2019-01-12T18:02:28.851Z,9.63
2019-01-12T18:05:02.715Z,9.80
2019-01-12T18:07:32.704Z,9.53
2019-01-12T18:10:04.565Z,8.13
2019-01-12T18:12:36.412Z,7.10
2019-01-12T18:15:10.328Z,8.07
2019-01-12T18:17:39.961Z,8.23
2019-01-12T18:20:12.039Z,6.97
2019-01-12T18:22:43.277Z,6.03
2019-01-12T18:25:14.215Z,5.90
2019-01-12T18:27:44.619Z,5.50
2019-01-12T18:30:18.412Z,6.07
2019-01-12T18:32:50.953Z,10.80
2019-01-12T18:35:20.651Z,10.03
2019-01-12T18:37:50.483Z,10.03
2019-01-12T18:40:19.954Z,11.67
2019-01-12T18:42:51.159Z,8.50
2019-01-12T18:45:20.736Z,5.67
2019-01-12T18:47:50.815Z,5.53
2019-01-12T18:50:24.626Z,8.00
2019-01-12T18:52:54.559Z,8.60
2019-01-12T18:55:23.809Z,6.20
2019-01-12T18:57:54.531Z,7.97
2019-01-12T19:00:25.708Z,6.33
2019-01-12T19:02:54.792Z,6.23
2019-01-12T19:05:27.337Z,6.97
2019-01-12T19:07:58.911Z,10.77
2019-01-12T19:10:27.968Z,11.10
2019-01-12T19:12:57.883Z,10.10
2019-01-12T19:15:32.965Z,6.67
2019-01-12T19:18:04.562Z,7.30
2019-01-12T19:20:34.111Z,7.73
2019-01-12T19:23:06.280Z,12.43
2019-01-12T19:25:36.727Z,7.97
2019-01-12T19:28:06.954Z,8.90
2019-01-12T19:30:36.801Z,11.20
2019-01-12T19:33:25.496Z,10.17
2019-01-12T19:35:57.897Z,8.30
2019-01-12T19:38:26.888Z,9.60
2019-01-12T19:40:57.206Z,5.93
2019-01-12T19:43:26.426Z,7.27
2019-01-12T19:45:57.616Z,5.27
2019-01-12T19:48:27.328Z,5.20
2019-01-12T19:50:57.493Z,5.50
2019-01-12T19:53:27.454Z,5.23
2019-01-12T19:55:59.881Z,5.00
2019-01-12T19:58:32.135Z,5.03
2019-01-12T20:01:02.960Z,4.90
2019-01-12T20:03:33.500Z,4.90
2019-01-12T20:06:03.921Z,5.30
2019-01-12T20:08:35.923Z,4.87
2019-01-12T20:11:05.841Z,4.90
2019-01-12T20:13:37.366Z,5.00
2019-01-12T20:16:08.368Z,10.83
2019-01-12T20:18:37.794Z,4.90
2019-01-12T20:21:07.212Z,4.57
2019-01-12T20:23:38.344Z,5.30
2019-01-12T20:26:10.560Z,4.87
2019-01-12T20:28:41.827Z,5.40
2019-01-12T20:31:58.407Z,5.70
2019-01-12T20:35:13.524Z,5.40
2019-01-12T20:38:34.431Z,5.50
2019-01-12T20:42:10.853Z,6.03
2019-01-12T20:45:36.748Z,7.23
2019-01-12T20:53:01.690Z,7.87
2019-01-12T20:56:31.245Z,7.23
2019-01-12T20:59:37.834Z,6.60
2019-01-12T21:03:34.136Z,6.40
2019-01-12T21:07:28.223Z,6.30
2019-01-12T21:10:39.036Z,5.90
2019-01-12T21:13:44.724Z,6.37
2019-01-12T21:16:22.125Z,8.80
2019-01-12T21:18:52.709Z,8.10
2019-01-12T21:21:24.004Z,8.00
2019-01-12T21:23:56.161Z,13.57
2019-01-12T21:26:26.384Z,8.63
2019-01-12T21:28:56.545Z,12.87
2019-01-12T21:31:28.354Z,6.00
2019-01-12T21:33:57.882Z,5.53
2019-01-12T21:36:29.023Z,6.30
2019-01-12T21:38:58.772Z,6.60
2019-01-12T21:41:28.461Z,6.03
2019-01-12T21:43:58.469Z,6.50
2019-01-12T21:46:29.034Z,6.40
2019-01-12T21:48:59.018Z,10.90
2019-01-12T21:51:31.166Z,10.43
2019-01-12T21:54:00.894Z,5.73
2019-01-12T21:56:30.378Z,6.33
2019-01-12T21:58:59.743Z,17.50
2019-01-12T22:01:36.244Z,6.30
2019-01-12T22:04:03.216Z,4.87
2019-01-12T22:06:35.340Z,4.67
2019-01-12T22:09:09.084Z,4.77
2019-01-12T22:11:38.443Z,5.40
2019-01-12T22:14:09.351Z,7.30
2019-01-12T22:16:39.378Z,5.27
2019-01-12T22:19:09.709Z,4.50
2019-01-12T22:21:39.311Z,5.70
2019-01-12T22:24:09.766Z,5.40
2019-01-12T22:26:40.496Z,5.20
2019-01-12T22:29:11.244Z,5.30
2019-01-12T22:31:40.959Z,5.80
2019-01-12T22:34:10.415Z,6.60
2019-01-12T22:36:40.351Z,5.50
2019-01-12T22:39:11.697Z,5.67
2019-01-12T22:41:42.368Z,5.30
2019-01-12T22:44:12.870Z,5.23
2019-01-12T22:46:44.146Z,5.50
2019-01-12T22:49:14.732Z,4.80
2019-01-12T22:51:45.977Z,5.37
2019-01-12T22:54:16.825Z,5.23
2019-01-12T22:56:46.244Z,19.23
2019-01-12T22:59:16.829Z,6.20
2019-01-12T23:01:55.036Z,6.20
2019-01-12T23:04:28.316Z,7.73
2019-01-12T23:06:59.956Z,8.47
2019-01-12T23:09:30.128Z,6.40
2019-01-12T23:12:00.668Z,5.23
2019-01-12T23:14:33.224Z,6.87
2019-01-12T23:17:05.254Z,7.30
2019-01-12T23:19:35.161Z,7.40
2019-01-12T23:22:05.464Z,6.40
2019-01-12T23:24:35.609Z,7.50
2019-01-12T23:27:07.954Z,7.17
2019-01-12T23:29:37.543Z,6.07
2019-01-12T23:32:07.756Z,6.83
2019-01-12T23:34:39.941Z,6.17
2019-01-12T23:37:09.339Z,6.20
2019-01-12T23:39:39.594Z,6.90
2019-01-12T23:42:10.317Z,7.50
2019-01-12T23:44:39.992Z,6.97
2019-01-12T23:47:10.226Z,7.60
2019-01-12T23:49:40.739Z,7.83
2019-01-12T23:52:10.073Z,5.13
2019-01-12T23:54:42.761Z,4.73
2019-01-12T23:57:15.258Z,5.13
2019-01-12T23:59:47.527Z,4.80
